createdAt,value
2018-06-27T00:04:26.390Z,85.80
2018-06-27T00:06:54.941Z,86.10
2018-06-27T00:09:23.392Z,86.10
2018-06-27T00:11:51.852Z,86.00
2018-06-27T00:14:20.313Z,85.80
2018-06-27T00:16:48.781Z,85.90
2018-06-27T00:19:17.229Z,86.00
2018-06-27T00:21:45.693Z,86.00
2018-06-27T00:26:42.281Z,86.00
2018-06-27T00:29:10.723Z,86.00
2018-06-27T00:31:39.193Z,85.90
2018-06-27T00:34:07.623Z,86.00
2018-06-27T00:36:36.094Z,86.10
2018-06-27T00:39:07.602Z,86.20
2018-06-27T00:41:36.076Z,86.30
2018-06-27T00:44:04.599Z,86.20
2018-06-27T00:46:33.372Z,86.20
2018-06-27T00:49:01.825Z,86.10
2018-06-27T00:51:30.284Z,86.30
2018-06-27T00:56:39.240Z,86.30
2018-06-27T00:59:08.044Z,86.30
2018-06-27T01:01:36.808Z,86.30
2018-06-27T01:04:05.384Z,86.50
2018-06-27T01:06:33.888Z,86.60
2018-06-27T01:09:02.685Z,86.60
2018-06-27T01:11:31.117Z,86.70
2018-06-27T01:13:59.592Z,86.80
2018-06-27T01:16:28.044Z,86.90
2018-06-27T01:18:56.573Z,86.90
2018-06-27T01:21:25.002Z,87.10
2018-06-27T01:23:53.469Z,87.10
2018-06-27T01:26:21.916Z,87.10
2018-06-27T01:28:51.261Z,87.00
2018-06-27T01:31:19.734Z,87.00
2018-06-27T01:33:48.191Z,87.00
2018-06-27T01:36:16.626Z,86.80
2018-06-27T01:38:45.107Z,86.90
2018-06-27T01:41:13.590Z,86.90
2018-06-27T01:43:42.045Z,86.90
2018-06-27T01:46:10.496Z,87.00
2018-06-27T01:48:38.949Z,86.90
2018-06-27T01:51:07.424Z,87.00
2018-06-27T01:53:37.245Z,87.10
2018-06-27T01:56:07.212Z,87.10
2018-06-27T01:58:35.707Z,87.20
2018-06-27T02:01:04.152Z,87.20
2018-06-27T02:03:32.637Z,87.30
2018-06-27T02:06:01.080Z,87.10
2018-06-27T02:08:29.561Z,87.20
2018-06-27T02:10:58.018Z,87.20
2018-06-27T02:13:26.484Z,87.20
2018-06-27T02:15:54.909Z,87.10
2018-06-27T02:18:23.354Z,87.10
2018-06-27T02:20:51.768Z,87.10
2018-06-27T02:23:20.232Z,87.10
2018-06-27T02:25:48.689Z,87.10
2018-06-27T02:28:17.170Z,87.20
2018-06-27T02:30:45.645Z,87.10
2018-06-27T02:33:19.443Z,87.10
2018-06-27T02:35:47.862Z,87.10
2018-06-27T02:38:16.320Z,87.30
2018-06-27T02:40:44.726Z,87.50
2018-06-27T02:43:13.241Z,87.50
2018-06-27T02:45:41.661Z,87.50
2018-06-27T02:48:10.090Z,86.80
2018-06-27T02:50:38.552Z,87.00
2018-06-27T02:53:07.036Z,87.00
2018-06-27T02:55:35.515Z,87.10
2018-06-27T02:58:04.122Z,87.20
2018-06-27T03:00:32.580Z,87.30
2018-06-27T03:03:01.013Z,87.50
2018-06-27T03:05:29.525Z,87.70
2018-06-27T03:07:57.969Z,87.70
2018-06-27T03:10:26.425Z,87.70
2018-06-27T03:12:54.874Z,87.60
2018-06-27T03:15:23.332Z,87.50
2018-06-27T03:17:51.826Z,87.50
2018-06-27T03:20:20.356Z,88.00
2018-06-27T03:22:48.756Z,88.30
2018-06-27T03:25:17.235Z,88.40
2018-06-27T03:27:45.681Z,88.40
2018-06-27T03:32:42.343Z,88.10
2018-06-27T03:35:10.806Z,88.00
2018-06-27T03:37:39.338Z,87.80
2018-06-27T03:40:07.815Z,87.60
2018-06-27T03:42:36.265Z,87.70
2018-06-27T03:45:04.788Z,87.50
2018-06-27T03:47:33.235Z,87.40
2018-06-27T03:50:01.700Z,87.50
2018-06-27T03:52:30.329Z,87.50
2018-06-27T03:54:58.808Z,87.50
2018-06-27T03:57:27.254Z,87.30
2018-06-27T03:59:55.707Z,87.40
2018-06-27T04:04:52.314Z,87.40
2018-06-27T04:07:20.790Z,87.50
2018-06-27T04:09:49.249Z,87.40
2018-06-27T04:12:17.672Z,87.40
2018-06-27T04:14:46.125Z,87.50
2018-06-27T04:17:14.560Z,88.00
2018-06-27T04:19:43.012Z,88.20
2018-06-27T04:22:11.439Z,88.20
2018-06-27T04:24:40.282Z,88.20
2018-06-27T04:27:08.726Z,88.00
2018-06-27T04:29:37.202Z,88.00
2018-06-27T04:32:05.627Z,87.70
2018-06-27T04:34:34.084Z,88.00
2018-06-27T04:37:02.504Z,88.10
2018-06-27T04:39:30.958Z,88.30
2018-06-27T04:41:59.383Z,88.40
2018-06-27T04:44:27.797Z,88.40
2018-06-27T04:46:56.265Z,88.00
2018-06-27T04:49:24.728Z,87.30
2018-06-27T04:51:53.176Z,87.40
2018-06-27T04:54:21.592Z,87.20
2018-06-27T04:56:50.059Z,86.90
2018-06-27T04:59:18.503Z,86.70
2018-06-27T05:01:46.967Z,86.70
2018-06-27T05:04:15.430Z,86.60
2018-06-27T05:06:43.892Z,86.30
2018-06-27T05:09:12.312Z,86.10
2018-06-27T05:11:40.923Z,85.90
2018-06-27T05:14:09.358Z,85.90
2018-06-27T05:16:38.014Z,85.90
2018-06-27T05:19:06.470Z,85.90
2018-06-27T05:21:34.928Z,86.00
2018-06-27T05:24:03.357Z,85.90
2018-06-27T05:26:31.817Z,85.70
2018-06-27T05:29:00.256Z,85.90
2018-06-27T05:31:28.741Z,85.80
2018-06-27T05:36:25.413Z,84.40
2018-06-27T05:38:53.852Z,83.80
2018-06-27T05:41:22.313Z,83.70
2018-06-27T05:43:50.729Z,83.70
2018-06-27T05:46:19.177Z,83.30
2018-06-27T05:48:47.624Z,83.10
2018-06-27T05:51:16.088Z,82.60
2018-06-27T05:53:44.566Z,82.70
2018-06-27T05:56:13.045Z,82.90
2018-06-27T05:58:41.528Z,82.60
2018-06-27T06:01:10.033Z,82.30
2018-06-27T06:03:38.508Z,81.90
2018-06-27T06:06:07.037Z,81.30
2018-06-27T06:08:35.460Z,81.00
2018-06-27T06:11:03.976Z,80.10
2018-06-27T06:13:32.428Z,79.90
2018-06-27T06:16:00.891Z,78.90
2018-06-27T06:18:29.308Z,76.20
2018-06-27T06:20:57.805Z,76.00
2018-06-27T06:23:26.232Z,75.80
2018-06-27T06:25:54.700Z,74.70
2018-06-27T06:28:23.108Z,72.80
2018-06-27T06:30:51.574Z,71.30
2018-06-27T06:33:20.021Z,67.60
2018-06-27T06:35:48.449Z,68.10
2018-06-27T06:38:16.953Z,68.00
2018-06-27T06:40:45.470Z,70.30
2018-06-27T06:43:13.897Z,68.90
2018-06-27T06:45:42.324Z,68.50
2018-06-27T06:48:10.772Z,70.30
2018-06-27T06:50:39.222Z,67.70
2018-06-27T06:53:07.756Z,67.60
2018-06-27T06:55:36.185Z,67.20
2018-06-27T06:58:04.705Z,64.80
2018-06-27T07:00:33.133Z,62.60
2018-06-27T07:03:01.574Z,61.20
2018-06-27T07:05:30.053Z,60.50
2018-06-27T07:07:58.557Z,63.90
2018-06-27T07:10:27.013Z,64.40
2018-06-27T07:12:55.498Z,66.30
2018-06-27T07:15:23.976Z,68.00
2018-06-27T07:17:52.510Z,69.20
2018-06-27T07:20:20.945Z,71.50
2018-06-27T07:22:49.412Z,72.70
2018-06-27T07:25:17.847Z,73.00
2018-06-27T07:27:46.345Z,70.90
2018-06-27T07:30:14.773Z,70.00
2018-06-27T07:32:43.221Z,65.80
2018-06-27T07:35:11.721Z,64.20
2018-06-27T07:37:40.186Z,65.40
2018-06-27T07:40:08.676Z,63.90
2018-06-27T07:42:37.153Z,59.90
2018-06-27T07:45:05.614Z,60.40
2018-06-27T07:47:34.103Z,62.60
2018-06-27T07:50:02.608Z,63.30
2018-06-27T07:52:31.113Z,67.30
2018-06-27T07:54:59.581Z,67.20
2018-06-27T07:57:28.093Z,61.80
2018-06-27T07:59:56.550Z,60.10
2018-06-27T08:02:25.028Z,55.50
2018-06-27T08:04:53.481Z,53.60
2018-06-27T08:07:21.984Z,54.90
2018-06-27T08:09:50.431Z,55.70
2018-06-27T08:12:18.947Z,56.20
2018-06-27T08:14:47.393Z,56.40
2018-06-27T08:17:15.844Z,57.90
2018-06-27T08:19:44.304Z,56.20
2018-06-27T08:22:12.846Z,55.90
2018-06-27T08:24:41.323Z,56.40
2018-06-27T08:27:09.811Z,53.40
2018-06-27T08:29:38.253Z,53.40
2018-06-27T08:32:06.917Z,54.10
2018-06-27T08:34:35.364Z,55.10
2018-06-27T08:37:03.826Z,55.10
2018-06-27T08:39:32.298Z,58.30
2018-06-27T08:42:00.737Z,60.10
2018-06-27T08:44:29.267Z,61.50
2018-06-27T08:46:57.646Z,62.30
2018-06-27T08:49:26.161Z,63.20
2018-06-27T08:51:54.722Z,65.30
2018-06-27T08:54:23.172Z,67.00
2018-06-27T08:56:51.679Z,68.10
2018-06-27T08:59:20.133Z,68.70
2018-06-27T09:01:48.585Z,69.70
2018-06-27T09:04:17.033Z,69.40
2018-06-27T09:06:45.475Z,66.80
2018-06-27T09:09:13.931Z,66.70
2018-06-27T09:11:42.970Z,66.80
2018-06-27T09:14:11.430Z,62.10
2018-06-27T09:16:39.860Z,60.40
2018-06-27T09:19:08.322Z,59.50
2018-06-27T09:21:36.729Z,61.40
2018-06-27T09:24:05.221Z,63.80
2018-06-27T09:26:33.668Z,66.10
2018-06-27T09:29:02.112Z,69.40
2018-06-27T09:31:30.536Z,70.50
2018-06-27T09:33:59.021Z,71.30
2018-06-27T09:36:27.433Z,73.70
2018-06-27T09:38:55.952Z,73.70
2018-06-27T09:41:24.405Z,74.30
2018-06-27T09:43:52.877Z,74.60
2018-06-27T09:46:21.304Z,76.70
2018-06-27T09:48:49.767Z,76.90
2018-06-27T09:51:18.194Z,77.60
2018-06-27T09:53:46.688Z,75.50
2018-06-27T09:56:15.161Z,69.40
2018-06-27T09:58:43.638Z,69.80
2018-06-27T10:01:12.104Z,64.10
2018-06-27T10:03:40.549Z,61.20
2018-06-27T10:06:09.054Z,61.00
2018-06-27T10:08:37.479Z,60.30
2018-06-27T10:11:05.969Z,61.20
2018-06-27T10:13:34.396Z,59.00
2018-06-27T10:16:02.869Z,58.40
2018-06-27T10:18:31.353Z,56.00
2018-06-27T10:20:59.840Z,56.10
2018-06-27T10:23:28.346Z,56.90
2018-06-27T10:25:56.817Z,58.60
2018-06-27T10:28:25.278Z,60.40
2018-06-27T10:30:53.753Z,61.30
2018-06-27T10:33:22.205Z,63.20
2018-06-27T10:35:50.682Z,64.20
2018-06-27T10:38:19.110Z,65.50
2018-06-27T10:40:47.573Z,65.60
2018-06-27T10:43:16.004Z,67.10
2018-06-27T10:45:44.489Z,66.50
2018-06-27T10:48:12.933Z,66.50
2018-06-27T10:50:41.418Z,65.90
2018-06-27T10:53:09.852Z,64.90
2018-06-27T10:55:38.315Z,65.80
2018-06-27T10:58:06.811Z,66.10
2018-06-27T11:00:35.336Z,65.30
2018-06-27T11:03:03.821Z,64.00
2018-06-27T11:05:32.285Z,64.30
2018-06-27T11:08:00.760Z,64.50
2018-06-27T11:10:29.260Z,63.80
2018-06-27T11:12:57.732Z,64.00
2018-06-27T11:15:26.188Z,62.50
2018-06-27T11:17:54.661Z,62.60
2018-06-27T11:20:23.138Z,64.60
2018-06-27T11:22:51.585Z,62.40
2018-06-27T11:25:20.117Z,62.80
2018-06-27T11:30:16.737Z,62.60
2018-06-27T11:32:45.163Z,62.40
2018-06-27T11:35:13.661Z,61.50
2018-06-27T11:37:42.184Z,62.10
2018-06-27T11:40:10.665Z,63.00
2018-06-27T11:42:39.134Z,62.50
2018-06-27T11:45:07.681Z,61.90
2018-06-27T11:47:36.154Z,61.20
2018-06-27T11:50:04.669Z,61.40
2018-06-27T11:52:33.142Z,62.00
2018-06-27T11:55:06.970Z,62.00
2018-06-27T11:57:35.461Z,61.90
2018-06-27T12:00:04.565Z,61.60
2018-06-27T12:02:33.029Z,62.30
2018-06-27T12:05:01.453Z,61.90
2018-06-27T12:07:29.952Z,62.40
2018-06-27T12:09:58.600Z,62.00
2018-06-27T12:12:27.069Z,61.70
2018-06-27T12:14:55.517Z,62.10
2018-06-27T12:17:24.038Z,61.80
2018-06-27T12:22:20.663Z,60.90
2018-06-27T12:24:49.117Z,60.20
2018-06-27T12:27:17.714Z,60.30
2018-06-27T12:29:46.146Z,59.80
2018-06-27T12:32:14.599Z,61.00
2018-06-27T12:34:43.015Z,61.30
2018-06-27T12:37:11.452Z,61.50
2018-06-27T12:39:39.895Z,60.00
2018-06-27T12:42:08.462Z,59.90
2018-06-27T12:44:36.886Z,62.80
2018-06-27T12:49:33.473Z,63.80
2018-06-27T12:52:01.986Z,63.80
2018-06-27T12:54:30.430Z,64.00
2018-06-27T12:56:58.924Z,63.90
2018-06-27T12:59:27.370Z,63.80
2018-06-27T13:01:55.833Z,63.80
2018-06-27T13:04:24.369Z,63.70
2018-06-27T13:06:52.898Z,63.90
2018-06-27T13:09:21.453Z,63.80
2018-06-27T13:11:49.798Z,63.30
2018-06-27T13:14:18.278Z,63.50
2018-06-27T13:16:46.749Z,63.70
2018-06-27T13:19:15.174Z,63.50
2018-06-27T13:21:43.666Z,63.10
2018-06-27T13:24:12.133Z,63.20
2018-06-27T13:26:40.558Z,64.60
2018-06-27T13:29:09.006Z,64.30
2018-06-27T13:31:37.516Z,64.50
2018-06-27T13:34:06.082Z,63.70
2018-06-27T13:36:34.549Z,63.50
2018-06-27T13:39:03.145Z,63.30
2018-06-27T13:41:31.590Z,63.10
2018-06-27T13:44:00.207Z,62.60
2018-06-27T13:46:28.644Z,62.00
2018-06-27T13:48:57.094Z,62.40
2018-06-27T13:51:25.541Z,61.70
2018-06-27T13:53:53.996Z,61.40
2018-06-27T13:56:22.540Z,60.50
2018-06-27T13:58:50.997Z,59.90
2018-06-27T14:03:47.862Z,59.60
2018-06-27T14:06:16.442Z,60.50
2018-06-27T14:08:44.889Z,61.20
2018-06-27T14:11:13.328Z,65.70
2018-06-27T14:13:41.783Z,65.40
2018-06-27T14:16:10.243Z,65.40
2018-06-27T14:18:38.768Z,65.90
2018-06-27T14:21:07.285Z,65.90
2018-06-27T14:23:35.752Z,65.20
2018-06-27T14:26:04.504Z,62.80
2018-06-27T14:28:32.978Z,62.90
2018-06-27T14:31:01.505Z,63.50
2018-06-27T14:33:29.978Z,63.90
2018-06-27T14:35:58.483Z,63.30
2018-06-27T14:38:26.992Z,62.90
2018-06-27T14:40:55.418Z,62.60
2018-06-27T14:43:23.898Z,63.50
2018-06-27T14:45:52.357Z,64.00
2018-06-27T14:48:20.841Z,64.40
2018-06-27T14:50:49.313Z,64.00
2018-06-27T14:55:45.892Z,65.10
2018-06-27T14:58:14.344Z,65.10
2018-06-27T15:00:42.768Z,64.20
2018-06-27T15:03:11.208Z,63.20
2018-06-27T15:05:39.931Z,64.30
2018-06-27T15:08:08.461Z,67.50
2018-06-27T15:10:36.956Z,68.50
2018-06-27T15:13:05.429Z,69.70
2018-06-27T15:15:33.929Z,71.00
2018-06-27T15:18:02.400Z,71.20
2018-06-27T15:20:30.939Z,71.40
2018-06-27T15:22:59.335Z,71.70
2018-06-27T15:25:27.931Z,71.60
2018-06-27T15:27:56.402Z,72.30
2018-06-27T15:30:24.893Z,72.50
2018-06-27T15:32:53.366Z,72.30
2018-06-27T15:35:21.861Z,72.00
2018-06-27T15:37:50.353Z,71.90
2018-06-27T15:40:18.849Z,72.30
2018-06-27T15:42:47.295Z,72.40
2018-06-27T15:45:15.798Z,72.60
2018-06-27T15:47:44.260Z,72.80
2018-06-27T15:50:12.794Z,72.50
2018-06-27T15:52:41.237Z,72.00
2018-06-27T15:55:09.729Z,72.00
2018-06-27T15:57:38.217Z,71.80
2018-06-27T16:00:06.762Z,71.80
2018-06-27T16:02:35.209Z,71.70
2018-06-27T16:05:03.725Z,71.10
2018-06-27T16:07:32.253Z,71.30
2018-06-27T16:10:00.776Z,71.30
2018-06-27T16:12:29.216Z,71.40
2018-06-27T16:14:57.837Z,71.80
2018-06-27T16:17:26.487Z,71.70
2018-06-27T16:19:54.848Z,71.20
2018-06-27T16:22:23.282Z,71.50
2018-06-27T16:24:51.771Z,71.40
2018-06-27T16:27:20.225Z,71.60
2018-06-27T16:29:49.689Z,71.20
2018-06-27T16:32:18.114Z,71.90
2018-06-27T16:34:46.589Z,71.50
2018-06-27T16:37:14.999Z,70.90
2018-06-27T16:39:43.476Z,71.10
2018-06-27T16:42:11.929Z,70.90
2018-06-27T16:44:40.757Z,70.60
2018-06-27T16:47:09.161Z,71.10
2018-06-27T16:49:37.611Z,71.20
2018-06-27T16:52:06.211Z,70.80
2018-06-27T16:54:34.709Z,70.90
2018-06-27T16:57:03.206Z,70.80
2018-06-27T16:59:31.656Z,70.10
2018-06-27T17:02:00.158Z,70.30
2018-06-27T17:04:28.775Z,70.00
2018-06-27T17:06:57.314Z,70.10
2018-06-27T17:09:26.097Z,70.00
2018-06-27T17:11:54.603Z,70.10
2018-06-27T17:14:23.189Z,70.10
2018-06-27T17:16:51.693Z,70.40
2018-06-27T17:19:20.255Z,70.40
2018-06-27T17:21:49.210Z,70.20
2018-06-27T17:24:17.637Z,70.20
2018-06-27T17:26:46.093Z,70.30
2018-06-27T17:29:14.568Z,71.10
2018-06-27T17:31:43.108Z,71.30
2018-06-27T17:34:11.539Z,71.40
2018-06-27T17:36:40.032Z,72.00
2018-06-27T17:39:09.605Z,71.90
2018-06-27T17:41:38.539Z,72.40
2018-06-27T17:44:07.199Z,72.70
2018-06-27T17:46:35.669Z,72.70
2018-06-27T17:51:32.284Z,73.20
2018-06-27T17:54:01.549Z,73.40
2018-06-27T17:56:30.004Z,74.70
2018-06-27T17:58:58.568Z,75.10
2018-06-27T18:01:27.032Z,75.10
2018-06-27T18:03:55.518Z,76.30
2018-06-27T18:06:24.005Z,77.00
2018-06-27T18:08:52.519Z,77.20
2018-06-27T18:11:20.941Z,77.50
2018-06-27T18:13:49.417Z,77.60
2018-06-27T18:16:17.886Z,77.70
2018-06-27T18:18:46.346Z,77.70
2018-06-27T18:21:14.857Z,76.90
2018-06-27T18:23:43.327Z,76.80
2018-06-27T18:26:12.136Z,76.60
2018-06-27T18:31:08.777Z,77.00
2018-06-27T18:33:37.221Z,77.10
2018-06-27T18:36:05.740Z,77.20
2018-06-27T18:38:34.174Z,77.40
2018-06-27T18:41:02.637Z,77.60
2018-06-27T18:43:31.118Z,77.70
2018-06-27T18:45:59.577Z,77.80
2018-06-27T18:48:28.324Z,78.10
2018-06-27T18:50:56.800Z,78.20
2018-06-27T18:53:25.262Z,78.50
2018-06-27T18:55:53.741Z,78.60
2018-06-27T18:58:22.197Z,78.70
2018-06-27T19:00:50.680Z,78.80
2018-06-27T19:03:19.156Z,78.90
2018-06-27T19:05:47.661Z,79.10
2018-06-27T19:08:16.184Z,79.50
2018-06-27T19:10:44.617Z,79.90
2018-06-27T19:13:13.130Z,79.90
2018-06-27T19:15:41.562Z,80.20
2018-06-27T19:18:10.086Z,80.10
2018-06-27T19:20:38.497Z,80.20
2018-06-27T19:23:06.997Z,80.30
2018-06-27T19:25:35.444Z,80.50
2018-06-27T19:28:03.953Z,80.90
2018-06-27T19:30:32.423Z,80.80
2018-06-27T19:33:00.862Z,81.20
2018-06-27T19:35:29.285Z,81.20
2018-06-27T19:37:57.728Z,81.20
2018-06-27T19:40:26.177Z,81.20
2018-06-27T19:42:54.649Z,81.50
2018-06-27T19:45:23.069Z,81.60
2018-06-27T19:47:51.529Z,81.80
2018-06-27T19:50:19.999Z,81.60
2018-06-27T19:52:48.550Z,81.80
2018-06-27T19:55:17.012Z,82.00
2018-06-27T19:57:45.481Z,82.30
2018-06-27T20:00:13.993Z,82.10
2018-06-27T20:02:42.445Z,82.10
2018-06-27T20:05:10.883Z,82.40
2018-06-27T20:07:39.507Z,82.50
2018-06-27T20:10:07.922Z,82.60
2018-06-27T20:12:36.368Z,82.50
2018-06-27T20:15:05.010Z,82.70
2018-06-27T20:17:33.497Z,82.70
2018-06-27T20:20:01.965Z,82.60
2018-06-27T20:22:30.429Z,82.70
2018-06-27T20:24:58.948Z,83.00
2018-06-27T20:27:27.395Z,83.10
2018-06-27T20:29:55.833Z,83.40
2018-06-27T20:32:24.289Z,83.40
2018-06-27T20:34:52.769Z,83.50
2018-06-27T20:37:21.308Z,83.80
2018-06-27T20:39:49.717Z,83.70
2018-06-27T20:44:46.308Z,84.00
2018-06-27T20:47:14.763Z,84.00
2018-06-27T20:49:43.250Z,83.90
2018-06-27T20:52:11.697Z,83.80
2018-06-27T20:54:40.164Z,83.40
2018-06-27T20:57:08.695Z,83.50
2018-06-27T20:59:37.145Z,83.40
2018-06-27T21:02:05.684Z,83.40
2018-06-27T21:04:34.213Z,83.40
2018-06-27T21:07:02.686Z,83.70
2018-06-27T21:09:31.157Z,83.90
2018-06-27T21:11:59.613Z,84.30
2018-06-27T21:14:28.265Z,84.60
2018-06-27T21:16:56.720Z,84.60
2018-06-27T21:19:25.190Z,84.70
2018-06-27T21:21:53.689Z,84.80
2018-06-27T21:24:22.165Z,84.80
2018-06-27T21:26:50.637Z,85.10
2018-06-27T21:29:19.089Z,85.10
2018-06-27T21:31:47.547Z,85.10
2018-06-27T21:34:16.031Z,85.10
2018-06-27T21:36:44.477Z,84.90
2018-06-27T21:39:12.956Z,85.20
2018-06-27T21:41:41.418Z,85.20
2018-06-27T21:44:09.877Z,85.20
2018-06-27T21:46:38.297Z,85.30
2018-06-27T21:49:06.775Z,84.90
2018-06-27T21:51:35.219Z,84.80
2018-06-27T21:54:03.694Z,84.80
2018-06-27T21:56:32.145Z,84.80
2018-06-27T21:59:00.584Z,84.80
2018-06-27T22:01:29.123Z,84.90
2018-06-27T22:03:57.549Z,85.50
2018-06-27T22:06:26.044Z,85.60
2018-06-27T22:11:22.615Z,85.60
2018-06-27T22:13:51.053Z,85.70
2018-06-27T22:16:19.493Z,85.70
2018-06-27T22:18:48.105Z,85.60
2018-06-27T22:21:16.576Z,85.60
2018-06-27T22:23:45.015Z,85.40
2018-06-27T22:26:13.678Z,85.40
2018-06-27T22:28:42.125Z,85.50
2018-06-27T22:31:10.945Z,85.50
2018-06-27T22:33:39.536Z,85.40
2018-06-27T22:36:08.069Z,85.30
2018-06-27T22:38:36.505Z,85.10
2018-06-27T22:41:05.022Z,84.90
2018-06-27T22:43:33.501Z,84.70
2018-06-27T22:46:02.044Z,84.60
2018-06-27T22:48:30.485Z,84.80
2018-06-27T22:50:58.953Z,85.20
2018-06-27T22:53:27.395Z,85.30
2018-06-27T22:55:55.879Z,85.50
2018-06-27T22:58:24.348Z,85.50
2018-06-27T23:00:52.833Z,85.50
2018-06-27T23:03:21.277Z,85.50
2018-06-27T23:05:49.791Z,85.50
2018-06-27T23:08:18.220Z,85.40
2018-06-27T23:10:46.664Z,85.40
2018-06-27T23:13:15.111Z,85.40
2018-06-27T23:15:43.581Z,85.70
2018-06-27T23:18:12.034Z,85.70
2018-06-27T23:20:40.488Z,85.70
2018-06-27T23:23:08.938Z,85.70
2018-06-27T23:25:37.413Z,85.70
2018-06-27T23:28:05.889Z,85.50
2018-06-27T23:30:34.365Z,85.50
2018-06-27T23:33:02.829Z,85.20
2018-06-27T23:35:31.337Z,85.20
2018-06-27T23:40:27.956Z,85.10
2018-06-27T23:42:56.400Z,85.10
2018-06-27T23:45:24.856Z,85.10
2018-06-27T23:47:53.308Z,85.20
2018-06-27T23:50:21.757Z,85.30
2018-06-27T23:52:50.195Z,85.30
2018-06-27T23:55:18.653Z,85.30
2018-06-27T23:57:47.109Z,85.30
